Mesa, AZ

11:55 AM MST on February 22, 2017 (GMT -0700)
MSRP36 | | Change Station

Elev 1364 ft 33.47 °N, 111.74 °W | Updated 9 minutes ago

Mostly Cloudy
Mostly Cloudy
73.0 °F
Feels Like 77 °F
N
3.0
Wind Variable Wind from ENE
Gusts 5.0 mph

Today
High -- | Low -- °F
--% Chance of Precip.
Yesterday
High -- | Low -- °F
Precip. -- in
Pressure 30.02 in
Visibility 20.0 miles
Clouds Few 3000 ft
Scattered Clouds 3500 ft
Scattered Clouds 10000 ft
Heat Index 77 °F
Dew Point 51 °F
Humidity 46%
Rainfall 0.00 in
Snow Depth Not available.
7:03 AM 6:18 PM
Waning Crescent, 15% visible
METAR KIWA 221847Z 21004KT 20SM FEW030 SCT035 SCT100 21/11 A3002
Pressure 30.02 in
Visibility 20.0 miles
Clouds Few 3000 ft
Scattered Clouds 3500 ft
Scattered Clouds 10000 ft
Heat Index 77 °F
Dew Point 51 °F
Humidity 46%
Rainfall 0.00 in
Snow Depth Not available.
7:03 AM 6:18 PM
Waning Crescent, 15% visible
METAR KIWA 221847Z 21004KT 20SM FEW030 SCT035 SCT100 21/11 A3002

Get Your Daily Forecast Email!

Thanks for signing up!

Be on the lookout for a verification email in your inbox.

You'll start receiving the daily forecast at 8 AM.

×

10-Day Weather Forecast

Almanac

Astronomy

Feb. 22, 2017 Rise Set
Actual Time
Civil Twilight
Nautical Twilight
Astronomical Twilight
Moon
Length of Visible Light
Length of Day
Tomorrow will be .
, % of the Moon is Illuminated

Today's Extremes

State Highs State Lows

Community

WunderPhotos

Upload Photos

1,962,540 photos uploaded!

WunderBlog® & News

Nearby

Air Quality

  Air Quality AQ Index Pollutant
Not available.

Snow Depth

Station Depth Elevation

Earthquake Activity

City Distance Mag. Time & Date
Minimum magnitude displayed is 2.5.

Coastal Water Temperatures

Place Temperature

Stations

Nearby Weather Stations

Station Location Temp. Windchill Dew Point Humidity Wind Precip. Elev Updated Type
                   

Watches & Warnings

There are currently no watches in effect.